createdAt,value
2023-09-18T00:00:31.168Z,18.18
2023-09-18T00:01:31.186Z,18.20
2023-09-18T00:02:31.335Z,18.17
2023-09-18T00:03:31.200Z,18.18
2023-09-18T00:04:31.140Z,18.18
2023-09-18T00:05:31.146Z,18.18
2023-09-18T00:06:31.085Z,18.18
2023-09-18T00:07:31.081Z,18.17
2023-09-18T00:08:31.117Z,18.17
2023-09-18T00:09:31.087Z,18.15
2023-09-18T00:10:31.050Z,18.14
2023-09-18T00:11:31.090Z,18.15
2023-09-18T00:12:31.125Z,18.12
2023-09-18T00:13:31.043Z,18.11
2023-09-18T00:14:31.069Z,18.08
2023-09-18T00:15:31.011Z,18.10
2023-09-18T00:16:36.194Z,18.11
2023-09-18T00:17:32.035Z,18.08
2023-09-18T00:18:31.863Z,18.11
2023-09-18T00:19:30.954Z,18.11
2023-09-18T00:20:31.109Z,18.12
2023-09-18T00:21:30.959Z,18.14
2023-09-18T00:22:30.923Z,18.12
2023-09-18T00:23:30.932Z,18.14
2023-09-18T00:24:30.930Z,18.14
2023-09-18T00:25:30.918Z,18.15
2023-09-18T00:26:30.926Z,18.14
2023-09-18T00:27:30.919Z,18.12
2023-09-18T00:28:30.879Z,18.11
2023-09-18T00:29:30.913Z,18.11
2023-09-18T00:30:30.860Z,18.11
2023-09-18T00:31:30.910Z,18.11
2023-09-18T00:32:30.858Z,18.11
2023-09-18T00:33:30.825Z,18.08
2023-09-18T00:34:30.797Z,18.10
2023-09-18T00:35:30.941Z,18.10
2023-09-18T00:36:30.765Z,18.08
2023-09-18T00:37:30.775Z,18.07
2023-09-18T00:38:30.854Z,18.07
2023-09-18T00:39:30.759Z,18.07
2023-09-18T00:40:30.754Z,18.07
2023-09-18T00:41:30.767Z,18.07
2023-09-18T00:42:30.716Z,18.08
2023-09-18T00:43:30.735Z,18.08
2023-09-18T00:44:30.735Z,18.08
2023-09-18T00:45:30.717Z,18.05
2023-09-18T00:46:30.668Z,18.05
2023-09-18T00:47:30.736Z,18.05
2023-09-18T00:48:30.648Z,18.05
2023-09-18T00:49:30.656Z,18.05
2023-09-18T00:50:30.654Z,18.03
2023-09-18T00:51:30.817Z,18.05
2023-09-18T00:52:30.623Z,18.03
2023-09-18T00:53:30.645Z,18.03
2023-09-18T00:54:30.575Z,18.05
2023-09-18T00:55:30.667Z,18.03
2023-09-18T00:56:30.650Z,18.03
2023-09-18T00:57:30.594Z,18.03
2023-09-18T00:58:30.554Z,18.05
2023-09-18T00:59:30.585Z,18.05
2023-09-18T01:00:30.538Z,18.05
2023-09-18T01:01:30.555Z,18.07
2023-09-18T01:02:30.629Z,18.05
2023-09-18T01:03:30.663Z,18.07
2023-09-18T01:04:30.498Z,18.05
2023-09-18T01:05:30.509Z,18.05
2023-09-18T01:06:30.468Z,18.07
2023-09-18T01:07:30.695Z,18.05
2023-09-18T01:08:30.468Z,18.02
2023-09-18T01:09:30.465Z,18.03
2023-09-18T01:10:30.421Z,18.03
2023-09-18T01:11:30.449Z,18.00
2023-09-18T01:12:30.399Z,18.03
2023-09-18T01:13:30.417Z,18.03
2023-09-18T01:14:30.436Z,18.03
2023-09-18T01:15:30.436Z,18.02
2023-09-18T01:16:30.373Z,18.00
2023-09-18T01:17:30.426Z,18.02
2023-09-18T01:18:30.313Z,18.00
2023-09-18T01:19:30.327Z,18.02
2023-09-18T01:20:30.388Z,18.02
2023-09-18T01:21:30.319Z,18.00
2023-09-18T01:22:30.306Z,17.99
2023-09-18T01:23:30.319Z,17.97
2023-09-18T01:24:32.475Z,17.96
2023-09-18T01:25:30.254Z,17.95
2023-09-18T01:26:30.309Z,17.93
2023-09-18T01:27:30.234Z,17.93
2023-09-18T01:28:30.258Z,17.93
2023-09-18T01:29:30.237Z,17.92
2023-09-18T01:30:30.234Z,17.92
2023-09-18T01:31:30.250Z,17.89
2023-09-18T01:32:30.303Z,17.89
2023-09-18T01:33:30.176Z,17.89
2023-09-18T01:34:30.161Z,17.86
2023-09-18T01:35:30.206Z,17.86
2023-09-18T01:36:30.132Z,17.84
2023-09-18T01:37:30.136Z,17.86
2023-09-18T01:38:30.146Z,17.82
2023-09-18T01:39:30.114Z,17.82
2023-09-18T01:40:30.119Z,17.84
2023-09-18T01:41:30.135Z,17.81
2023-09-18T01:42:30.066Z,17.81
2023-09-18T01:43:30.051Z,17.78
2023-09-18T01:44:30.059Z,17.78
2023-09-18T01:45:30.039Z,17.77
2023-09-18T01:46:30.087Z,17.75
2023-09-18T01:47:30.070Z,17.78
2023-09-18T01:48:29.997Z,17.75
2023-09-18T01:49:29.990Z,17.77
2023-09-18T01:50:29.996Z,17.75
2023-09-18T01:51:29.981Z,17.77
2023-09-18T01:52:29.957Z,17.75
2023-09-18T01:53:30.084Z,17.75
2023-09-18T01:54:29.914Z,17.75
2023-09-18T01:55:29.924Z,17.74
2023-09-18T01:56:29.924Z,17.71
2023-09-18T01:57:29.926Z,17.71
2023-09-18T01:58:29.892Z,17.72
2023-09-18T01:59:29.914Z,17.70
2023-09-18T02:00:29.969Z,17.70
2023-09-18T02:01:36.576Z,17.71
2023-09-18T02:02:31.391Z,17.70
2023-09-18T02:04:05.114Z,17.68
2023-09-18T02:04:54.158Z,17.70
2023-09-18T02:05:30.980Z,17.70
2023-09-18T02:06:29.898Z,17.68
2023-09-18T02:07:29.880Z,17.70
2023-09-18T02:08:29.860Z,17.68
2023-09-18T02:09:29.775Z,17.66
2023-09-18T02:10:29.748Z,17.70
2023-09-18T02:11:29.825Z,17.70
2023-09-18T02:12:29.737Z,17.70
2023-09-18T02:13:29.762Z,17.70
2023-09-18T02:14:29.768Z,17.70
2023-09-18T02:15:29.724Z,17.68
2023-09-18T02:16:29.720Z,17.70
2023-09-18T02:17:29.782Z,17.70
2023-09-18T02:18:29.690Z,17.70
2023-09-18T02:19:29.687Z,17.71
2023-09-18T02:20:29.767Z,17.71
2023-09-18T02:21:29.646Z,17.72
2023-09-18T02:22:29.639Z,17.72
2023-09-18T02:23:29.657Z,17.72
2023-09-18T02:24:29.643Z,17.74
2023-09-18T02:25:29.613Z,17.72
2023-09-18T02:26:29.639Z,17.72
2023-09-18T02:27:29.598Z,17.72
2023-09-18T02:28:29.566Z,17.74
2023-09-18T02:29:29.601Z,17.77
2023-09-18T02:30:29.554Z,17.75
2023-09-18T02:31:29.538Z,17.74
2023-09-18T02:32:29.682Z,17.75
2023-09-18T02:33:29.649Z,17.75
2023-09-18T02:34:29.491Z,17.74
2023-09-18T02:35:29.543Z,17.78
2023-09-18T02:36:29.476Z,17.77
2023-09-18T02:37:29.508Z,17.77
2023-09-18T02:38:29.508Z,17.77
2023-09-18T02:39:29.462Z,17.78
2023-09-18T02:40:29.432Z,17.74
2023-09-18T02:41:29.484Z,17.75
2023-09-18T02:42:29.479Z,17.74
2023-09-18T02:43:29.434Z,17.72
2023-09-18T02:44:29.384Z,17.72
2023-09-18T02:45:29.375Z,17.72
2023-09-18T02:46:29.380Z,17.70
2023-09-18T02:47:29.483Z,17.71
2023-09-18T02:48:29.356Z,17.70
2023-09-18T02:49:29.356Z,17.71
2023-09-18T02:50:29.366Z,17.71
2023-09-18T02:51:29.382Z,17.70
2023-09-18T02:52:29.301Z,17.70
2023-09-18T02:53:29.346Z,17.70
2023-09-18T02:54:29.321Z,17.71
2023-09-18T02:55:29.396Z,17.71
2023-09-18T02:56:29.320Z,17.71
2023-09-18T02:57:29.246Z,17.71
2023-09-18T02:58:29.399Z,17.71
2023-09-18T02:59:29.313Z,17.74
2023-09-18T03:00:42.893Z,17.74
2023-09-18T03:01:30.278Z,17.72
2023-09-18T03:02:29.295Z,17.74
2023-09-18T03:03:29.313Z,17.75
2023-09-18T03:04:29.181Z,17.74
2023-09-18T03:05:29.203Z,17.75
2023-09-18T03:06:29.166Z,17.75
2023-09-18T03:07:29.172Z,17.74
2023-09-18T03:08:29.186Z,17.75
2023-09-18T03:09:29.137Z,17.74
2023-09-18T03:10:29.127Z,17.72
2023-09-18T03:11:29.149Z,17.70
2023-09-18T03:12:29.091Z,17.71
2023-09-18T03:13:29.100Z,17.71
2023-09-18T03:14:29.126Z,17.70
2023-09-18T03:15:29.070Z,17.72
2023-09-18T03:16:29.078Z,17.72
2023-09-18T03:17:29.131Z,17.74
2023-09-18T03:18:29.031Z,17.71
2023-09-18T03:19:29.028Z,17.75
2023-09-18T03:20:29.027Z,17.72
2023-09-18T03:21:29.013Z,17.72
2023-09-18T03:22:28.974Z,17.74
2023-09-18T03:23:29.053Z,17.72
2023-09-18T03:24:28.961Z,17.75
2023-09-18T03:25:29.008Z,17.74
2023-09-18T03:26:29.018Z,17.75
2023-09-18T03:27:28.940Z,17.75
2023-09-18T03:28:28.917Z,17.79
2023-09-18T03:29:28.977Z,17.77
2023-09-18T03:30:28.882Z,17.78
2023-09-18T03:31:28.931Z,17.78
2023-09-18T03:32:28.966Z,17.79
2023-09-18T03:33:28.861Z,17.79
2023-09-18T03:34:28.887Z,17.82
2023-09-18T03:35:28.878Z,17.87
2023-09-18T03:36:28.848Z,17.86
2023-09-18T03:37:28.833Z,17.87
2023-09-18T03:38:28.852Z,17.90
2023-09-18T03:39:28.794Z,17.93
2023-09-18T03:40:28.799Z,17.95
2023-09-18T03:41:28.806Z,17.97
2023-09-18T03:42:28.805Z,17.97
2023-09-18T03:43:28.763Z,18.00
2023-09-18T03:44:28.811Z,17.99
2023-09-18T03:45:28.738Z,18.00
2023-09-18T03:46:28.753Z,18.02
2023-09-18T03:47:28.802Z,18.03
2023-09-18T03:48:28.705Z,18.05
2023-09-18T03:49:28.704Z,18.05
2023-09-18T03:50:28.754Z,18.08
2023-09-18T03:51:28.684Z,18.10
2023-09-18T03:52:28.680Z,18.12
2023-09-18T03:53:28.699Z,18.14
2023-09-18T03:54:28.657Z,18.14
2023-09-18T03:55:28.632Z,18.18
2023-09-18T03:56:28.652Z,18.21
2023-09-18T03:57:28.678Z,18.23
2023-09-18T03:58:28.591Z,18.26
2023-09-18T03:59:28.734Z,18.27
2023-09-18T04:00:28.570Z,18.27
2023-09-18T04:01:28.590Z,18.30
2023-09-18T04:02:28.686Z,18.35
2023-09-18T04:03:28.581Z,18.39
2023-09-18T04:04:28.540Z,18.44
2023-09-18T04:05:28.589Z,18.54
2023-09-18T04:06:28.494Z,18.67
2023-09-18T04:07:28.501Z,18.80
2023-09-18T04:08:28.550Z,18.95
2023-09-18T04:09:28.448Z,19.14
2023-09-18T04:10:28.485Z,19.32
2023-09-18T04:11:28.468Z,19.47
2023-09-18T04:12:28.829Z,19.66
2023-09-18T04:13:28.449Z,19.80
2023-09-18T04:14:28.464Z,19.92
2023-09-18T04:15:28.404Z,20.05
2023-09-18T04:16:28.418Z,20.13
2023-09-18T04:17:29.200Z,20.17
2023-09-18T04:18:28.382Z,20.21
2023-09-18T04:19:28.348Z,20.28
2023-09-18T04:20:28.373Z,20.31
2023-09-18T04:21:28.361Z,20.36
2023-09-18T04:22:28.991Z,20.36
2023-09-18T04:23:28.397Z,20.41
2023-09-18T04:24:30.006Z,20.47
2023-09-18T04:25:28.299Z,20.51
2023-09-18T04:26:28.347Z,20.54
2023-09-18T04:27:28.250Z,20.59
2023-09-18T04:28:28.354Z,20.62
2023-09-18T04:29:28.297Z,20.66
2023-09-18T04:30:28.247Z,20.70
2023-09-18T04:31:28.247Z,20.76
2023-09-18T04:32:28.372Z,20.80
2023-09-18T04:33:28.297Z,20.85
2023-09-18T04:34:28.227Z,20.87
2023-09-18T04:35:28.855Z,20.88
2023-09-18T04:36:28.170Z,20.88
2023-09-18T04:37:28.156Z,20.88
2023-09-18T04:38:28.199Z,20.89
2023-09-18T04:39:28.118Z,20.88
2023-09-18T04:40:28.132Z,20.88
2023-09-18T04:41:28.166Z,20.91
2023-09-18T04:42:28.124Z,20.97
2023-09-18T04:43:28.134Z,21.01
2023-09-18T04:44:28.146Z,21.06
2023-09-18T04:45:28.092Z,21.07
2023-09-18T04:46:28.064Z,21.12
2023-09-18T04:47:28.095Z,21.13
2023-09-18T04:48:28.123Z,21.13
2023-09-18T04:49:28.027Z,21.16
2023-09-18T04:50:28.040Z,21.19
2023-09-18T04:51:28.014Z,21.21
2023-09-18T04:52:27.998Z,21.22
2023-09-18T04:53:28.048Z,21.25
2023-09-18T04:54:27.976Z,21.25
2023-09-18T04:55:28.010Z,21.27
2023-09-18T04:56:27.992Z,21.25
2023-09-18T04:57:27.942Z,21.28
2023-09-18T04:58:27.949Z,21.32
2023-09-18T04:59:28.029Z,21.31
2023-09-18T05:00:28.900Z,21.32
2023-09-18T05:01:28.056Z,21.29
2023-09-18T05:02:27.929Z,21.25
2023-09-18T05:03:27.978Z,21.27
2023-09-18T05:04:27.878Z,21.28
2023-09-18T05:05:27.901Z,21.25
2023-09-18T05:06:27.907Z,21.24
2023-09-18T05:07:27.852Z,21.22
2023-09-18T05:08:27.851Z,21.24
2023-09-18T05:09:27.799Z,21.25
2023-09-18T05:10:27.844Z,21.28
2023-09-18T05:11:27.839Z,21.29
2023-09-18T05:12:27.791Z,21.29
2023-09-18T05:13:27.866Z,21.31
2023-09-18T05:14:27.805Z,21.34
2023-09-18T05:15:27.774Z,21.37
2023-09-18T05:16:27.807Z,21.40
2023-09-18T05:17:27.793Z,21.42
2023-09-18T05:18:27.749Z,21.46
2023-09-18T05:19:27.695Z,21.49
2023-09-18T05:20:27.719Z,21.52
2023-09-18T05:21:27.765Z,21.54
2023-09-18T05:22:27.669Z,21.58
2023-09-18T05:23:27.686Z,21.54
2023-09-18T05:24:27.665Z,21.58
2023-09-18T05:25:27.651Z,21.58
2023-09-18T05:26:27.645Z,21.65
2023-09-18T05:27:27.641Z,21.65
2023-09-18T05:28:27.616Z,21.65
2023-09-18T05:29:27.652Z,21.67
2023-09-18T05:30:27.706Z,21.69
2023-09-18T05:31:27.579Z,21.67
2023-09-18T05:32:27.673Z,21.67
2023-09-18T05:33:27.585Z,21.65
2023-09-18T05:34:27.529Z,21.64
2023-09-18T05:35:27.553Z,21.64
2023-09-18T05:36:30.317Z,21.62
2023-09-18T05:37:27.505Z,21.62
2023-09-18T05:38:27.511Z,21.61
2023-09-18T05:39:27.469Z,21.58
2023-09-18T05:40:27.472Z,21.50
2023-09-18T05:41:27.569Z,21.42
2023-09-18T05:42:27.459Z,21.31
2023-09-18T05:43:27.425Z,21.19
2023-09-18T05:44:27.451Z,20.98
2023-09-18T05:45:27.416Z,20.82
2023-09-18T05:46:27.471Z,20.61
2023-09-18T05:47:27.428Z,20.39
2023-09-18T05:48:27.404Z,20.17
2023-09-18T05:49:27.397Z,20.02
2023-09-18T05:50:27.384Z,19.87
2023-09-18T05:51:27.348Z,19.77
2023-09-18T05:52:27.349Z,19.71
2023-09-18T05:53:27.389Z,19.62
2023-09-18T05:54:27.365Z,19.59
2023-09-18T05:55:27.295Z,19.55
2023-09-18T05:56:27.335Z,19.54
2023-09-18T05:57:27.312Z,19.50
2023-09-18T05:58:27.289Z,19.48
2023-09-18T05:59:27.282Z,19.47
2023-09-18T06:00:27.300Z,19.47
2023-09-18T06:01:27.442Z,19.46
2023-09-18T06:02:27.313Z,19.46
2023-09-18T06:03:27.358Z,19.46
2023-09-18T06:04:27.374Z,19.47
2023-09-18T06:05:27.325Z,19.46
2023-09-18T06:06:27.181Z,19.43
2023-09-18T06:07:27.167Z,19.43
2023-09-18T06:08:27.313Z,19.43
2023-09-18T06:09:27.140Z,19.40
2023-09-18T06:10:27.146Z,19.41
2023-09-18T06:11:27.182Z,19.40
2023-09-18T06:12:27.159Z,19.44
2023-09-18T06:13:27.117Z,19.44
2023-09-18T06:14:27.173Z,19.43
2023-09-18T06:15:27.148Z,19.44
2023-09-18T06:16:27.156Z,19.44
2023-09-18T06:17:27.074Z,19.44
2023-09-18T06:18:27.124Z,19.50
2023-09-18T06:19:27.030Z,19.55
2023-09-18T06:20:27.070Z,19.58
2023-09-18T06:21:26.997Z,19.61
2023-09-18T06:22:27.004Z,19.65
2023-09-18T06:23:27.019Z,19.69
2023-09-18T06:24:27.436Z,19.71
2023-09-18T06:25:27.024Z,19.71
2023-09-18T06:26:27.008Z,19.73
2023-09-18T06:27:26.945Z,19.74
2023-09-18T06:28:26.966Z,19.76
2023-09-18T06:29:26.946Z,19.77
2023-09-18T06:30:27.609Z,19.80
2023-09-18T06:31:26.922Z,19.80
2023-09-18T06:32:26.973Z,19.81
2023-09-18T06:33:26.895Z,19.84
2023-09-18T06:34:26.870Z,19.88
2023-09-18T06:35:26.882Z,19.94
2023-09-18T06:36:26.853Z,19.96
2023-09-18T06:37:26.849Z,19.98
2023-09-18T06:38:26.887Z,19.99
2023-09-18T06:39:26.806Z,20.02
2023-09-18T06:40:26.827Z,20.06
2023-09-18T06:41:26.866Z,20.10
2023-09-18T06:42:26.839Z,20.14
2023-09-18T06:43:26.766Z,20.14
2023-09-18T06:44:26.826Z,20.16
2023-09-18T06:45:26.727Z,20.17
2023-09-18T06:46:26.770Z,20.20
2023-09-18T06:47:26.948Z,20.17
2023-09-18T06:48:26.808Z,20.21
2023-09-18T06:49:26.728Z,20.21
2023-09-18T06:50:26.759Z,20.24
2023-09-18T06:51:40.579Z,20.28
2023-09-18T06:52:27.674Z,20.32
2023-09-18T06:53:26.688Z,20.38
2023-09-18T06:54:26.673Z,20.43
2023-09-18T06:55:26.645Z,20.50
2023-09-18T06:56:26.676Z,20.54
2023-09-18T06:57:26.639Z,20.55
2023-09-18T06:58:26.649Z,20.61
2023-09-18T06:59:27.860Z,20.66
2023-09-18T07:00:26.607Z,20.72
2023-09-18T07:01:26.594Z,20.74
2023-09-18T07:02:26.692Z,20.77
2023-09-18T07:03:26.653Z,20.79
2023-09-18T07:04:26.602Z,20.82
2023-09-18T07:05:26.572Z,20.84
2023-09-18T07:06:26.524Z,20.85
2023-09-18T07:07:26.780Z,20.91
2023-09-18T07:08:26.544Z,20.92
2023-09-18T07:09:26.541Z,20.97
2023-09-18T07:10:26.503Z,20.99
2023-09-18T07:11:26.550Z,21.01
2023-09-18T07:12:26.466Z,21.03
2023-09-18T07:13:26.428Z,21.07
2023-09-18T07:14:26.516Z,21.07
2023-09-18T07:15:26.416Z,21.16
2023-09-18T07:16:26.473Z,21.22
2023-09-18T07:17:26.499Z,21.25
2023-09-18T07:18:26.502Z,21.25
2023-09-18T07:19:26.360Z,21.25
2023-09-18T07:20:26.431Z,21.31
2023-09-18T07:21:26.355Z,21.31
2023-09-18T07:22:27.590Z,21.31
2023-09-18T07:23:26.341Z,21.31
2023-09-18T07:24:26.348Z,21.31
2023-09-18T07:25:26.310Z,21.31
2023-09-18T07:26:26.343Z,21.27
2023-09-18T07:27:26.280Z,21.28
2023-09-18T07:28:26.355Z,21.32
2023-09-18T07:29:26.305Z,21.34
2023-09-18T07:30:26.277Z,21.37
2023-09-18T07:31:26.285Z,21.42
2023-09-18T07:32:37.754Z,21.46
2023-09-18T07:33:27.328Z,21.52
2023-09-18T07:34:26.222Z,21.54
2023-09-18T07:35:26.216Z,21.59
2023-09-18T07:36:26.195Z,21.59
2023-09-18T07:37:26.170Z,21.61
2023-09-18T07:38:26.199Z,21.61
2023-09-18T07:39:27.289Z,21.67
2023-09-18T07:40:26.156Z,21.74
2023-09-18T07:41:26.158Z,21.83
2023-09-18T07:42:26.147Z,21.90
2023-09-18T07:43:26.141Z,21.96
2023-09-18T07:44:26.201Z,22.00
2023-09-18T07:45:26.096Z,22.03
2023-09-18T07:46:26.070Z,22.05
2023-09-18T07:47:26.110Z,22.03
2023-09-18T07:48:26.158Z,22.10
2023-09-18T07:49:26.081Z,22.14
2023-09-18T07:50:26.050Z,22.18
2023-09-18T07:51:26.023Z,22.24
2023-09-18T07:52:26.098Z,22.30
2023-09-18T07:53:26.035Z,22.31
2023-09-18T07:54:26.013Z,22.33
2023-09-18T07:55:25.990Z,22.36
2023-09-18T07:56:26.000Z,22.40
2023-09-18T07:57:25.980Z,22.45
2023-09-18T07:58:25.936Z,22.47
2023-09-18T07:59:25.982Z,22.52
2023-09-18T08:00:25.936Z,22.58
2023-09-18T08:01:25.987Z,22.62
2023-09-18T08:02:25.920Z,22.65
2023-09-18T08:03:26.007Z,22.72
2023-09-18T08:04:26.247Z,22.72
2023-09-18T08:05:25.954Z,22.77
2023-09-18T08:06:25.849Z,22.77
2023-09-18T08:07:25.859Z,22.79
2023-09-18T08:08:25.949Z,22.82
2023-09-18T08:09:25.865Z,22.85
2023-09-18T08:10:25.822Z,22.88
2023-09-18T08:11:25.815Z,22.88
2023-09-18T08:12:25.816Z,22.86
2023-09-18T08:13:25.809Z,22.85
2023-09-18T08:14:25.821Z,22.85
2023-09-18T08:15:25.805Z,22.85
2023-09-18T08:16:25.792Z,22.85
2023-09-18T08:17:25.794Z,22.82
2023-09-18T08:18:25.835Z,22.83
2023-09-18T08:19:25.810Z,22.80
2023-09-18T08:20:25.747Z,22.77
2023-09-18T08:21:25.708Z,22.75
2023-09-18T08:22:25.742Z,22.75
2023-09-18T08:23:25.763Z,22.70
2023-09-18T08:24:25.688Z,22.67
2023-09-18T08:25:25.690Z,22.65
2023-09-18T08:26:25.683Z,22.65
2023-09-18T08:27:25.676Z,22.60
2023-09-18T08:28:25.627Z,22.60
2023-09-18T08:29:25.713Z,22.60
2023-09-18T08:30:25.635Z,22.60
2023-09-18T08:31:25.695Z,22.58
2023-09-18T08:32:25.630Z,22.55
2023-09-18T08:33:25.668Z,22.57
2023-09-18T08:34:27.507Z,22.57
2023-09-18T08:35:25.686Z,22.55
2023-09-18T08:36:25.579Z,22.55
2023-09-18T08:37:25.556Z,22.54
2023-09-18T08:38:25.584Z,22.55
2023-09-18T08:39:25.528Z,22.54
2023-09-18T08:40:25.504Z,22.52
2023-09-18T08:41:25.600Z,22.51
2023-09-18T08:42:25.468Z,22.49
2023-09-18T08:43:25.501Z,22.49
2023-09-18T08:44:25.471Z,22.46
2023-09-18T08:45:25.481Z,22.46
2023-09-18T08:46:25.422Z,22.46
2023-09-18T08:47:25.488Z,22.47
2023-09-18T08:48:25.528Z,22.51
2023-09-18T08:49:25.396Z,22.52
2023-09-18T08:50:25.421Z,22.51
2023-09-18T08:51:25.366Z,22.52
2023-09-18T08:52:25.374Z,22.55
2023-09-18T08:53:25.416Z,22.55
2023-09-18T08:54:25.358Z,22.54
2023-09-18T08:55:25.347Z,22.55
2023-09-18T08:56:25.332Z,22.52
2023-09-18T08:57:25.332Z,22.51
2023-09-18T08:58:25.299Z,22.51
2023-09-18T08:59:25.329Z,22.51
2023-09-18T09:00:25.255Z,22.46
2023-09-18T09:01:25.350Z,22.49
2023-09-18T09:02:25.315Z,22.46
2023-09-18T09:03:25.297Z,22.45
2023-09-18T09:04:25.247Z,22.47
2023-09-18T09:05:25.409Z,22.47
2023-09-18T09:06:25.374Z,22.52
2023-09-18T09:07:25.227Z,22.54
2023-09-18T09:08:25.207Z,22.57
2023-09-18T09:09:25.189Z,22.60
2023-09-18T09:10:25.164Z,22.62
2023-09-18T09:11:25.221Z,22.61
2023-09-18T09:12:25.177Z,22.64
2023-09-18T09:13:38.358Z,22.67
2023-09-18T09:14:26.253Z,22.67
2023-09-18T09:15:25.233Z,22.72
2023-09-18T09:16:25.120Z,22.76
2023-09-18T09:17:25.120Z,22.77
2023-09-18T09:18:25.143Z,22.75
2023-09-18T09:19:25.092Z,22.70
2023-09-18T09:20:25.049Z,22.70
2023-09-18T09:21:25.088Z,22.67
2023-09-18T09:22:25.087Z,22.65
2023-09-18T09:23:25.048Z,22.62
2023-09-18T09:24:25.054Z,22.61
2023-09-18T09:25:24.994Z,22.58
2023-09-18T09:26:25.220Z,22.57
2023-09-18T09:27:25.014Z,22.55
2023-09-18T09:28:24.979Z,22.52
2023-09-18T09:29:25.007Z,22.54
2023-09-18T09:30:25.031Z,22.54
2023-09-18T09:31:24.961Z,22.51
2023-09-18T09:32:24.953Z,22.51
2023-09-18T09:33:25.020Z,22.54
2023-09-18T09:34:24.957Z,22.52
2023-09-18T09:35:24.963Z,22.46
2023-09-18T09:36:24.866Z,22.47
2023-09-18T09:37:24.986Z,22.46
2023-09-18T09:38:24.875Z,22.45
2023-09-18T09:39:24.913Z,22.45
2023-09-18T09:40:24.832Z,22.45
2023-09-18T09:41:24.874Z,22.46
2023-09-18T09:42:24.821Z,22.51
2023-09-18T09:43:24.825Z,22.54
2023-09-18T09:44:24.850Z,22.57
2023-09-18T09:45:24.861Z,22.62
2023-09-18T09:46:24.770Z,22.62
2023-09-18T09:47:24.810Z,22.62
2023-09-18T09:48:24.840Z,22.64
2023-09-18T09:49:24.740Z,22.67
2023-09-18T09:50:24.737Z,22.67
2023-09-18T09:51:24.732Z,22.70
2023-09-18T09:52:24.707Z,22.72
2023-09-18T09:53:24.737Z,22.73
2023-09-18T09:54:24.699Z,22.72
2023-09-18T09:55:24.702Z,22.70
2023-09-18T09:56:24.699Z,22.65
2023-09-18T09:57:24.670Z,22.64
2023-09-18T09:58:24.643Z,22.60
2023-09-18T09:59:24.657Z,22.58
2023-09-18T10:00:24.609Z,22.58
2023-09-18T10:01:24.661Z,22.54
2023-09-18T10:02:24.689Z,22.57
2023-09-18T10:03:24.669Z,22.54
2023-09-18T10:04:24.656Z,22.57
2023-09-18T10:05:24.592Z,22.57
2023-09-18T10:06:24.549Z,22.55
2023-09-18T10:07:24.572Z,22.55
2023-09-18T10:08:25.015Z,22.55
2023-09-18T10:09:24.544Z,22.54
2023-09-18T10:10:24.509Z,22.54
2023-09-18T10:11:24.541Z,22.52
2023-09-18T10:12:24.482Z,22.58
2023-09-18T10:13:24.493Z,22.62
2023-09-18T10:14:24.603Z,22.65
2023-09-18T10:15:24.542Z,22.68
2023-09-18T10:16:24.497Z,22.68
2023-09-18T10:17:24.474Z,22.72
2023-09-18T10:18:24.532Z,22.76
2023-09-18T10:19:24.431Z,22.76
2023-09-18T10:20:24.517Z,22.80
2023-09-18T10:21:24.398Z,22.86
2023-09-18T10:22:24.368Z,22.92
2023-09-18T10:23:24.410Z,22.92
2023-09-18T10:24:24.397Z,22.97
2023-09-18T10:25:24.358Z,22.94
2023-09-18T10:26:24.354Z,22.95
2023-09-18T10:27:24.333Z,22.98
2023-09-18T10:28:24.320Z,23.02
2023-09-18T10:29:24.329Z,23.09
2023-09-18T10:30:24.299Z,23.13
2023-09-18T10:31:24.336Z,23.22
2023-09-18T10:32:24.302Z,23.23
2023-09-18T10:33:24.334Z,23.17
2023-09-18T10:34:24.273Z,23.10
2023-09-18T10:35:24.280Z,23.04
2023-09-18T10:36:24.221Z,23.02
2023-09-18T10:37:24.237Z,23.00
2023-09-18T10:38:24.418Z,23.00
2023-09-18T10:39:24.317Z,23.00
2023-09-18T10:40:24.236Z,22.98
2023-09-18T10:41:24.202Z,23.00
2023-09-18T10:42:24.170Z,22.97
2023-09-18T10:43:24.151Z,22.95
2023-09-18T10:44:24.214Z,22.94
2023-09-18T10:45:24.167Z,22.97
2023-09-18T10:46:24.140Z,22.98
2023-09-18T10:47:24.155Z,23.04
2023-09-18T10:48:24.167Z,23.04
2023-09-18T10:49:24.169Z,23.07
2023-09-18T10:50:24.155Z,23.12
2023-09-18T10:51:24.121Z,23.12
2023-09-18T10:52:24.042Z,23.15
2023-09-18T10:53:24.067Z,23.12
2023-09-18T10:54:24.036Z,23.16
2023-09-18T10:55:24.041Z,23.20
2023-09-18T10:56:24.107Z,23.19
2023-09-18T10:57:24.547Z,23.25
2023-09-18T10:58:23.992Z,23.28
2023-09-18T10:59:24.297Z,23.35
2023-09-18T11:00:24.030Z,23.35
2023-09-18T11:01:23.994Z,23.23
2023-09-18T11:02:24.019Z,23.27
2023-09-18T11:03:24.107Z,23.33
2023-09-18T11:04:24.120Z,23.36
2023-09-18T11:05:24.241Z,23.33
2023-09-18T11:06:23.918Z,23.31
2023-09-18T11:07:23.922Z,23.31
2023-09-18T11:08:23.928Z,23.33
2023-09-18T11:09:23.903Z,23.28
2023-09-18T11:10:24.062Z,23.31
2023-09-18T11:11:23.880Z,23.31
2023-09-18T11:12:23.840Z,23.27
2023-09-18T11:13:23.853Z,23.25
2023-09-18T11:14:23.847Z,23.22
2023-09-18T11:15:24.040Z,23.19
2023-09-18T11:16:23.951Z,23.16
2023-09-18T11:17:23.903Z,23.16
2023-09-18T11:18:23.856Z,23.17
2023-09-18T11:19:23.811Z,23.19
2023-09-18T11:20:23.771Z,23.19
2023-09-18T11:21:23.991Z,23.16
2023-09-18T11:22:23.736Z,23.17
2023-09-18T11:23:23.754Z,23.17
2023-09-18T11:24:23.733Z,23.17
2023-09-18T11:25:23.706Z,23.12
2023-09-18T11:26:23.690Z,23.12
2023-09-18T11:27:23.685Z,23.12
2023-09-18T11:28:23.658Z,23.12
2023-09-18T11:29:23.726Z,23.17
2023-09-18T11:30:23.700Z,23.19
2023-09-18T11:31:23.661Z,23.25
2023-09-18T11:32:23.681Z,23.28
2023-09-18T11:33:23.679Z,23.32
2023-09-18T11:34:23.610Z,23.32
2023-09-18T11:35:23.628Z,23.38
2023-09-18T11:36:23.602Z,23.46
2023-09-18T11:37:23.578Z,23.47
2023-09-18T11:38:23.577Z,23.48
2023-09-18T11:39:23.548Z,23.51
2023-09-18T11:40:23.571Z,23.48
2023-09-18T11:41:23.598Z,23.46
2023-09-18T11:42:23.718Z,23.40
2023-09-18T11:43:23.524Z,23.40
2023-09-18T11:44:23.518Z,23.36
2023-09-18T11:45:23.533Z,23.38
2023-09-18T11:46:23.472Z,23.43
2023-09-18T11:47:23.561Z,23.50
2023-09-18T11:48:23.535Z,23.48
2023-09-18T11:49:23.496Z,23.50
2023-09-18T11:50:23.473Z,23.51
2023-09-18T11:51:23.417Z,23.50
2023-09-18T11:52:23.409Z,23.47
2023-09-18T11:53:23.482Z,23.40
2023-09-18T11:54:23.397Z,23.53
2023-09-18T11:55:23.393Z,23.76
2023-09-18T11:56:23.406Z,24.03
2023-09-18T11:57:23.352Z,24.31
2023-09-18T11:58:23.353Z,24.52
2023-09-18T11:59:23.345Z,24.73
2023-09-18T12:00:23.416Z,24.90
2023-09-18T12:01:23.358Z,25.06
2023-09-18T12:02:23.340Z,25.06
2023-09-18T12:03:23.458Z,25.27
2023-09-18T12:04:23.396Z,25.42
2023-09-18T12:05:23.299Z,25.42
2023-09-18T12:06:23.260Z,25.25
2023-09-18T12:07:23.290Z,25.05
2023-09-18T12:08:23.277Z,24.91
2023-09-18T12:09:23.211Z,24.95
2023-09-18T12:10:23.246Z,24.83
2023-09-18T12:11:23.214Z,24.98
2023-09-18T12:12:23.307Z,25.09
2023-09-18T12:13:23.187Z,25.13
2023-09-18T12:14:23.215Z,25.00
2023-09-18T12:15:23.169Z,24.90
2023-09-18T12:16:23.205Z,24.67
2023-09-18T12:17:23.156Z,24.52
2023-09-18T12:18:23.140Z,24.43
2023-09-18T12:19:23.135Z,24.37
2023-09-18T12:20:23.166Z,24.32
2023-09-18T12:21:23.119Z,24.27
2023-09-18T12:22:23.113Z,24.45
2023-09-18T12:23:23.116Z,24.52
2023-09-18T12:24:23.101Z,24.49
2023-09-18T12:25:23.084Z,24.45
2023-09-18T12:26:23.106Z,24.39
2023-09-18T12:27:23.030Z,24.39
2023-09-18T12:28:23.045Z,24.35
2023-09-18T12:29:23.064Z,24.27
2023-09-18T12:30:23.208Z,24.18
2023-09-18T12:31:23.041Z,24.16
2023-09-18T12:32:23.034Z,24.10
2023-09-18T12:33:23.045Z,24.09
2023-09-18T12:34:23.037Z,24.10
2023-09-18T12:35:22.969Z,24.10
2023-09-18T12:36:22.940Z,24.15
2023-09-18T12:37:22.959Z,24.18
2023-09-18T12:38:22.997Z,24.15
2023-09-18T12:39:22.995Z,24.12
2023-09-18T12:40:22.916Z,24.10
2023-09-18T12:41:22.892Z,24.09
2023-09-18T12:42:22.876Z,24.10
2023-09-18T12:43:22.885Z,24.15
2023-09-18T12:44:22.868Z,24.18
2023-09-18T12:45:22.841Z,24.21
2023-09-18T12:46:22.915Z,24.21
2023-09-18T12:47:22.857Z,24.24
2023-09-18T12:48:22.857Z,24.28
2023-09-18T12:49:22.806Z,24.25
2023-09-18T12:50:22.813Z,24.25
2023-09-18T12:51:22.784Z,24.25
2023-09-18T12:52:24.487Z,24.27